Florencia — IBPD — position and weather

sailwx.info

Track history (hours):
 
Tides and Currents Weather Stations Pressure Air Temp Water Temp Dewpoint Dewpoint Depression Visibility Wind Speed Wind Dir Waves Ship Positions

Florencia

Last reported at 2015-May-04 21:33 UTC. Time now 2015-May-04 22:06 UTC.
Position N 44°19' E 008°30'.

Length 186 m; draft 6.6 m.

Type: Passenger vessel. MMSI: 247105900.

Date/timePositionNaut miles runAvg speedWind from/ knotsBaromVisibWave heightAir tempDewpointWater temp
2015-May-04 21:33N 44°19' E 008°30'0 0.0
2015-May-04 20:33N 44°19' E 008°30'0 0.0
2015-May-04 19:33N 44°19' E 008°30'0 0.0
2015-May-04 18:30N 44°19' E 008°30'0 0.0
2015-May-04 17:24N 44°19' E 008°30'0 0.0
2015-May-04 16:30N 44°19' E 008°30'0 0.0
2015-May-04 15:30N 44°19' E 008°30'0 0.0
2015-May-04 14:33N 44°19' E 008°30'0 0.0
2015-May-04 13:33N 44°19' E 008°30'0 0.0
2015-May-04 12:33N 44°19' E 008°30'0 0.2
2015-May-04 11:30N 44°19' E 008°30'0 0.0
2015-May-04 10:33N 44°19' E 008°30'0 0.0
2015-May-04 09:27N 44°19' E 008°30'0 0.0
2015-May-04 08:27N 44°19' E 008°30'0 0.0
2015-May-04 07:24N 44°19' E 008°30'0 0.0
2015-May-04 06:27N 44°19' E 008°30'0 0.0
2015-May-04 05:21N 44°19' E 008°30'0 0.1
2015-May-04 04:30N 44°19' E 008°30'0 0.1
2015-May-04 03:30N 44°19' E 008°30'0 0.0
2015-May-04 02:33N 44°19' E 008°30'0 0.0
2015-May-04 01:30N 44°19' E 008°30'0 0.0
2015-May-04 00:24N 44°19' E 008°30'0 0.0
2015-May-03 23:30N 44°19' E 008°30'0 0.0
2015-May-03 22:27N 44°19' E 008°30'0 0.0
2015-May-03 21:33N 44°19' E 008°30'0 0.0
2015-May-03 20:33N 44°19' E 008°30'0 0.0
2015-May-03 19:34N 44°19' E 008°30'0 0.0
2015-May-03 18:34N 44°19' E 008°30'0 0.0
2015-May-03 17:34N 44°19' E 008°30'2 1.9
2015-May-03 16:32N 44°17' E 008°31'1817.8
2015-May-03 15:30N 44°01' E 008°20'1819.0
2015-May-03 14:33N 43°47' E 008°04'1919.2
2015-May-03 13:33N 43°35' E 007°43'1918.9
2015-May-03 12:33N 43°23' E 007°23'16019.4
2015-May-03 04:19N 42°03' E 004°15'1619.7
2015-May-03 03:31N 41°55' E 003°56'2419.1
2015-May-03 02:16N 41°44' E 003°28'1419.7
2015-May-03 01:33N 41°38' E 003°11'2020.2
2015-May-03 00:32N 41°29' E 002°46'2020.2
2015-May-02 23:33N 41°20' E 002°22'9 7.3
2015-May-02 22:20N 41°22' E 002°11'0 0.0
2015-May-02 20:08N 41°22' E 002°11'0 0.0
2015-May-02 19:26N 41°22' E 002°11'0 0.0
2015-May-02 17:26N 41°22' E 002°11'0 0.0
2015-May-02 14:32N 41°22' E 002°11'0 0.0
2015-May-02 13:29N 41°22' E 002°11'0 0.0
2015-May-02 11:14N 41°22' E 002°11'0 0.0
2015-May-02 04:32N 41°22' E 002°11'0 0.0
2015-May-01 19:14N 41°22' E 002°11'0 0.0
2015-May-01 18:32N 41°22' E 002°11'0 0.0
2015-May-01 16:26N 41°22' E 002°11'0 0.0
2015-May-01 15:26N 41°22' E 002°11'0 0.0
2015-May-01 14:20N 41°22' E 002°11'0 0.0
2015-May-01 13:14N 41°22' E 002°11'0 0.0
2015-May-01 08:26N 41°22' E 002°11'0 0.0
2015-May-01 06:11N 41°22' E 002°11'0 0.0
2015-May-01 05:33N 41°22' E 002°11'0 0.0
2015-May-01 04:33N 41°22' E 002°11'0 0.0
2015-May-01 03:31N 41°22' E 002°11'0 0.0
2015-May-01 02:33N 41°22' E 002°11'0 0.0
2015-May-01 01:25N 41°22' E 002°11'0 0.0
2015-May-01 00:33N 41°22' E 002°11'0 0.0
2015-Apr-30 23:33N 41°22' E 002°11'0 0.0
2015-Apr-30 22:33N 41°22' E 002°11'0 0.0
2015-Apr-30 21:32N 41°22' E 002°11'0 0.0
2015-Apr-30 20:24N 41°22' E 002°11'0 0.0
2015-Apr-30 19:28N 41°22' E 002°11'0 0.1
2015-Apr-30 18:29N 41°22' E 002°11'6 6.2
2015-Apr-30 17:29N 41°17' E 002°16'1817.6
2015-Apr-30 16:26N 41°27' E 002°37'1617.6
2015-Apr-30 15:31N 41°36' E 002°55'1817.4
2015-Apr-30 14:30N 41°46' E 003°15'3517.9
2015-Apr-30 12:32N 42°03' E 003°56'2117.4
2015-Apr-30 11:22N 42°13' E 004°20'1417.5
2015-Apr-30 10:32N 42°20' E 004°37'13617.1
2015-Apr-30 02:33N 43°24' E 007°22'6418.2
2015-Apr-29 23:03N 44°08' E 008°26'918.3
2015-Apr-29 22:32N 44°16' E 008°31'2 2.5
2015-Apr-29 21:33N 44°19' E 008°30'0 0.0
2015-Apr-29 20:33N 44°19' E 008°30'0 0.0
2015-Apr-29 19:33N 44°19' E 008°30'0 0.0
2015-Apr-29 18:33N 44°19' E 008°30'1 1.1
2015-Apr-29 17:33N 44°18' E 008°31'1818.1
2015-Apr-29 16:32N 44°01' E 008°21'13616.3
2015-Apr-29 08:15N 42°46' E 005°46'1919.9
2015-Apr-29 07:17N 42°42' E 005°20'2119.8
2015-Apr-29 06:14N 42°37' E 004°53'2019.6
2015-Apr-29 05:14N 42°32' E 004°27'4118.9
2015-Apr-29 03:05N 42°10' E 003°41'1120.1
2015-Apr-29 02:33N 42°02' E 003°32'2019.4
2015-Apr-29 01:33N 41°47' E 003°14'2120.5
2015-Apr-29 00:32N 41°35' E 002°51'2019.6
2015-Apr-28 23:30N 41°24' E 002°29'1515.2
2015-Apr-28 22:31N 41°20' E 002°10'2 2.4
2015-Apr-28 21:33N 41°22' E 002°11'0 0.0
2015-Apr-28 20:29N 41°22' E 002°11'0 0.0
2015-Apr-28 19:33N 41°22' E 002°11'0 0.0
2015-Apr-28 18:21N 41°22' E 002°11'1 0.5
2015-Apr-28 16:28N 41°21' E 002°10'1010.1
2015-Apr-28 15:31N 41°23' E 002°23'1919.6
2015-Apr-28 14:33N 41°33' E 002°44'2019.7
2015-Apr-28 13:33N 41°44' E 003°06'2019.8
2015-Apr-28 12:34N 41°56' E 003°27'2120.5
2015-Apr-28 11:34N 42°14' E 003°40'2019.4
2015-Apr-28 10:32N 42°32' E 003°49'2720.0
2015-Apr-28 09:11N 42°44' E 004°22'1419.5
2015-Apr-28 08:28N 42°49' E 004°40'2020.4
2015-Apr-28 07:29N 42°54' E 005°06'3618.6
2015-Apr-28 05:34N 42°54' E 005°55'6318.9
2015-Apr-28 02:14N 43°21' E 007°13'1420.2
2015-Apr-28 01:32N 43°29' E 007°29'4120.6
2015-Apr-27 23:33N 43°53' E 008°14'2120.1
2015-Apr-27 22:32N 44°11' E 008°29'8 3.4
2015-Apr-27 20:15N 44°19' E 008°30'0 0.0
2015-Apr-27 19:33N 44°19' E 008°30'0 0.0
2015-Apr-27 18:24N 44°19' E 008°30'0 0.0
2015-Apr-27 17:33N 44°19' E 008°30'0 0.0
2015-Apr-27 16:27N 44°19' E 008°30'0 0.2
2015-Apr-27 15:30N 44°19' E 008°30'0 0.0
2015-Apr-27 14:30N 44°19' E 008°30'0 0.0
2015-Apr-27 13:33N 44°19' E 008°30'0 0.0
2015-Apr-27 12:09N 44°19' E 008°30'0 0.0
2015-Apr-27 11:30N 44°19' E 008°30'0 0.0
2015-Apr-27 10:24N 44°19' E 008°30'0 0.0
2015-Apr-27 09:33N 44°19' E 008°30'0 0.0
2015-Apr-27 08:33N 44°19' E 008°30'0 0.0
2015-Apr-27 07:33N 44°19' E 008°30'0 0.0
2015-Apr-27 06:27N 44°19' E 008°30'0 0.0
2015-Apr-27 05:33N 44°19' E 008°30'0 0.0
2015-Apr-27 04:33N 44°19' E 008°30'0 0.0
2015-Apr-27 03:27N 44°19' E 008°30'0 0.0
2015-Apr-27 02:27N 44°19' E 008°30'0 0.0
2015-Apr-27 01:33N 44°19' E 008°30'0 0.0
2015-Apr-27 00:21N 44°19' E 008°30'0 0.0
2015-Apr-26 23:24N 44°19' E 008°30'0 0.0
2015-Apr-26 22:30N 44°19' E 008°30'0 0.2
2015-Apr-26 21:32N 44°19' E 008°30'0 0.0
2015-Apr-26 20:33N 44°19' E 008°30'0 0.0
2015-Apr-26 19:33N 44°19' E 008°30'0 0.0
2015-Apr-26 18:33N 44°19' E 008°30'1 0.6
2015-Apr-26 17:33N 44°19' E 008°31'1716.6
2015-Apr-26 16:33N 44°03' E 008°21'3819.2
2015-Apr-26 14:33N 43°36' E 007°44'1918.9
2015-Apr-26 13:33N 43°24' E 007°24'8319.3
2015-Apr-26 09:15N 42°39' E 005°49'1720.1
2015-Apr-26 08:25N 42°31' E 005°29'2119.5
2015-Apr-26 07:19N 42°21' E 005°04'11519.7
2015-Apr-26 01:28N 41°27' E 002°47'1819.6
2015-Apr-26 00:33N 41°19' E 002°25'1110.6
2015-Apr-25 23:32N 41°22' E 002°11'0 0.2
2015-Apr-25 22:31N 41°22' E 002°11'0 0.0
2015-Apr-25 21:33N 41°22' E 002°11'0 0.0
2015-Apr-25 20:09N 41°22' E 002°11'0 0.0
2015-Apr-25 19:33N 41°22' E 002°11'0 0.0
2015-Apr-25 18:15N 41°22' E 002°11'0 0.0
2015-Apr-25 17:33N 41°22' E 002°11'0 0.0
2015-Apr-25 16:30N 41°22' E 002°11'8 8.6
2015-Apr-25 15:31N 41°21' E 002°22'2020.6
2015-Apr-25 14:33N 41°30' E 002°46'2619.1
2015-Apr-25 13:10N 41°41' E 003°17'1320.0
2015-Apr-25 12:33N 41°47' E 003°32'2020.1
2015-Apr-25 11:32N 41°56' E 003°57'2020.2
2015-Apr-25 10:33N 42°05' E 004°21'2120.0
2015-Apr-25 09:29N 42°14' E 004°47'2018.7
2015-Apr-25 08:25N 42°23' E 005°10'1718.5
2015-Apr-25 07:29N 42°32' E 005°31'13619.6
2015-Apr-25 00:33N 43°48' E 008°06'2019.8
2015-Apr-24 23:34N 44°03' E 008°23'1716.6
2015-Apr-24 22:33N 44°19' E 008°30'0 0.4
2015-Apr-24 21:33N 44°19' E 008°30'  
Track history (hours):
 
Tides and Currents Weather Stations Pressure Air Temp Water Temp Dewpoint Dewpoint Depression Visibility Wind Speed Wind Dir Waves Ship Positions

Florencia

Last reported at 2015-May-04 21:33 UTC. Time now 2015-May-04 22:06 UTC.
Position N 44°19' E 008°30'.

Length 186 m; draft 6.6 m.

Type: Passenger vessel. MMSI: 247105900.

Date/timePositionNaut miles runAvg speedWind from/ knotsBaromVisibWave heightAir tempDewpointWater temp
2015-May-04 21:33N 44°19' E 008°30'0 0.0
2015-May-04 20:33N 44°19' E 008°30'0 0.0
2015-May-04 19:33N 44°19' E 008°30'0 0.0
2015-May-04 18:30N 44°19' E 008°30'0 0.0
2015-May-04 17:24N 44°19' E 008°30'0 0.0
2015-May-04 16:30N 44°19' E 008°30'0 0.0
2015-May-04 15:30N 44°19' E 008°30'0 0.0
2015-May-04 14:33N 44°19' E 008°30'0 0.0
2015-May-04 13:33N 44°19' E 008°30'0 0.0
2015-May-04 12:33N 44°19' E 008°30'0 0.2
2015-May-04 11:30N 44°19' E 008°30'0 0.0
2015-May-04 10:33N 44°19' E 008°30'0 0.0
2015-May-04 09:27N 44°19' E 008°30'0 0.0
2015-May-04 08:27N 44°19' E 008°30'0 0.0
2015-May-04 07:24N 44°19' E 008°30'0 0.0
2015-May-04 06:27N 44°19' E 008°30'0 0.0
2015-May-04 05:21N 44°19' E 008°30'0 0.1
2015-May-04 04:30N 44°19' E 008°30'0 0.1
2015-May-04 03:30N 44°19' E 008°30'0 0.0
2015-May-04 02:33N 44°19' E 008°30'0 0.0
2015-May-04 01:30N 44°19' E 008°30'0 0.0
2015-May-04 00:24N 44°19' E 008°30'0 0.0
2015-May-03 23:30N 44°19' E 008°30'0 0.0
2015-May-03 22:27N 44°19' E 008°30'0 0.0
2015-May-03 21:33N 44°19' E 008°30'0 0.0
2015-May-03 20:33N 44°19' E 008°30'0 0.0
2015-May-03 19:34N 44°19' E 008°30'0 0.0
2015-May-03 18:34N 44°19' E 008°30'0 0.0
2015-May-03 17:34N 44°19' E 008°30'2 1.9
2015-May-03 16:32N 44°17' E 008°31'1817.8
2015-May-03 15:30N 44°01' E 008°20'1819.0
2015-May-03 14:33N 43°47' E 008°04'1919.2
2015-May-03 13:33N 43°35' E 007°43'1918.9
2015-May-03 12:33N 43°23' E 007°23'16019.4
2015-May-03 04:19N 42°03' E 004°15'1619.7
2015-May-03 03:31N 41°55' E 003°56'2419.1
2015-May-03 02:16N 41°44' E 003°28'1419.7
2015-May-03 01:33N 41°38' E 003°11'2020.2
2015-May-03 00:32N 41°29' E 002°46'2020.2
2015-May-02 23:33N 41°20' E 002°22'9 7.3
2015-May-02 22:20N 41°22' E 002°11'0 0.0
2015-May-02 20:08N 41°22' E 002°11'0 0.0
2015-May-02 19:26N 41°22' E 002°11'0 0.0
2015-May-02 17:26N 41°22' E 002°11'0 0.0
2015-May-02 14:32N 41°22' E 002°11'0 0.0
2015-May-02 13:29N 41°22' E 002°11'0 0.0
2015-May-02 11:14N 41°22' E 002°11'0 0.0
2015-May-02 04:32N 41°22' E 002°11'0 0.0
2015-May-01 19:14N 41°22' E 002°11'0 0.0
2015-May-01 18:32N 41°22' E 002°11'0 0.0
2015-May-01 16:26N 41°22' E 002°11'0 0.0
2015-May-01 15:26N 41°22' E 002°11'0 0.0
2015-May-01 14:20N 41°22' E 002°11'0 0.0
2015-May-01 13:14N 41°22' E 002°11'0 0.0
2015-May-01 08:26N 41°22' E 002°11'0 0.0
2015-May-01 06:11N 41°22' E 002°11'0 0.0
2015-May-01 05:33N 41°22' E 002°11'0 0.0
2015-May-01 04:33N 41°22' E 002°11'0 0.0
2015-May-01 03:31N 41°22' E 002°11'0 0.0
2015-May-01 02:33N 41°22' E 002°11'0 0.0
2015-May-01 01:25N 41°22' E 002°11'0 0.0
2015-May-01 00:33N 41°22' E 002°11'0 0.0
2015-Apr-30 23:33N 41°22' E 002°11'0 0.0
2015-Apr-30 22:33N 41°22' E 002°11'0 0.0
2015-Apr-30 21:32N 41°22' E 002°11'0 0.0
2015-Apr-30 20:24N 41°22' E 002°11'0 0.0
2015-Apr-30 19:28N 41°22' E 002°11'0 0.1
2015-Apr-30 18:29N 41°22' E 002°11'6 6.2
2015-Apr-30 17:29N 41°17' E 002°16'1817.6
2015-Apr-30 16:26N 41°27' E 002°37'1617.6
2015-Apr-30 15:31N 41°36' E 002°55'1817.4
2015-Apr-30 14:30N 41°46' E 003°15'3517.9
2015-Apr-30 12:32N 42°03' E 003°56'2117.4
2015-Apr-30 11:22N 42°13' E 004°20'1417.5
2015-Apr-30 10:32N 42°20' E 004°37'13617.1
2015-Apr-30 02:33N 43°24' E 007°22'6418.2
2015-Apr-29 23:03N 44°08' E 008°26'918.3
2015-Apr-29 22:32N 44°16' E 008°31'2 2.5
2015-Apr-29 21:33N 44°19' E 008°30'0 0.0
2015-Apr-29 20:33N 44°19' E 008°30'0 0.0
2015-Apr-29 19:33N 44°19' E 008°30'0 0.0
2015-Apr-29 18:33N 44°19' E 008°30'1 1.1
2015-Apr-29 17:33N 44°18' E 008°31'1818.1
2015-Apr-29 16:32N 44°01' E 008°21'13616.3
2015-Apr-29 08:15N 42°46' E 005°46'1919.9
2015-Apr-29 07:17N 42°42' E 005°20'2119.8
2015-Apr-29 06:14N 42°37' E 004°53'2019.6
2015-Apr-29 05:14N 42°32' E 004°27'4118.9
2015-Apr-29 03:05N 42°10' E 003°41'1120.1
2015-Apr-29 02:33N 42°02' E 003°32'2019.4
2015-Apr-29 01:33N 41°47' E 003°14'2120.5
2015-Apr-29 00:32N 41°35' E 002°51'2019.6
2015-Apr-28 23:30N 41°24' E 002°29'1515.2
2015-Apr-28 22:31N 41°20' E 002°10'2 2.4
2015-Apr-28 21:33N 41°22' E 002°11'0 0.0
2015-Apr-28 20:29N 41°22' E 002°11'0 0.0
2015-Apr-28 19:33N 41°22' E 002°11'0 0.0
2015-Apr-28 18:21N 41°22' E 002°11'1 0.5
2015-Apr-28 16:28N 41°21' E 002°10'1010.1
2015-Apr-28 15:31N 41°23' E 002°23'1919.6
2015-Apr-28 14:33N 41°33' E 002°44'2019.7
2015-Apr-28 13:33N 41°44' E 003°06'2019.8
2015-Apr-28 12:34N 41°56' E 003°27'2120.5
2015-Apr-28 11:34N 42°14' E 003°40'2019.4
2015-Apr-28 10:32N 42°32' E 003°49'2720.0
2015-Apr-28 09:11N 42°44' E 004°22'1419.5
2015-Apr-28 08:28N 42°49' E 004°40'2020.4
2015-Apr-28 07:29N 42°54' E 005°06'3618.6
2015-Apr-28 05:34N 42°54' E 005°55'6318.9
2015-Apr-28 02:14N 43°21' E 007°13'1420.2
2015-Apr-28 01:32N 43°29' E 007°29'4120.6
2015-Apr-27 23:33N 43°53' E 008°14'2120.1
2015-Apr-27 22:32N 44°11' E 008°29'8 3.4
2015-Apr-27 20:15N 44°19' E 008°30'0 0.0
2015-Apr-27 19:33N 44°19' E 008°30'0 0.0
2015-Apr-27 18:24N 44°19' E 008°30'0 0.0
2015-Apr-27 17:33N 44°19' E 008°30'0 0.0
2015-Apr-27 16:27N 44°19' E 008°30'0 0.2
2015-Apr-27 15:30N 44°19' E 008°30'0 0.0
2015-Apr-27 14:30N 44°19' E 008°30'0 0.0
2015-Apr-27 13:33N 44°19' E 008°30'0 0.0
2015-Apr-27 12:09N 44°19' E 008°30'0 0.0
2015-Apr-27 11:30N 44°19' E 008°30'0 0.0
2015-Apr-27 10:24N 44°19' E 008°30'0 0.0
2015-Apr-27 09:33N 44°19' E 008°30'0 0.0
2015-Apr-27 08:33N 44°19' E 008°30'0 0.0
2015-Apr-27 07:33N 44°19' E 008°30'0 0.0
2015-Apr-27 06:27N 44°19' E 008°30'0 0.0
2015-Apr-27 05:33N 44°19' E 008°30'0 0.0
2015-Apr-27 04:33N 44°19' E 008°30'0 0.0
2015-Apr-27 03:27N 44°19' E 008°30'0 0.0
2015-Apr-27 02:27N 44°19' E 008°30'0 0.0
2015-Apr-27 01:33N 44°19' E 008°30'0 0.0
2015-Apr-27 00:21N 44°19' E 008°30'0 0.0
2015-Apr-26 23:24N 44°19' E 008°30'0 0.0
2015-Apr-26 22:30N 44°19' E 008°30'0 0.2
2015-Apr-26 21:32N 44°19' E 008°30'0 0.0
2015-Apr-26 20:33N 44°19' E 008°30'0 0.0
2015-Apr-26 19:33N 44°19' E 008°30'0 0.0
2015-Apr-26 18:33N 44°19' E 008°30'1 0.6
2015-Apr-26 17:33N 44°19' E 008°31'1716.6
2015-Apr-26 16:33N 44°03' E 008°21'3819.2
2015-Apr-26 14:33N 43°36' E 007°44'1918.9
2015-Apr-26 13:33N 43°24' E 007°24'8319.3
2015-Apr-26 09:15N 42°39' E 005°49'1720.1
2015-Apr-26 08:25N 42°31' E 005°29'2119.5
2015-Apr-26 07:19N 42°21' E 005°04'11519.7
2015-Apr-26 01:28N 41°27' E 002°47'1819.6
2015-Apr-26 00:33N 41°19' E 002°25'1110.6
2015-Apr-25 23:32N 41°22' E 002°11'0 0.2
2015-Apr-25 22:31N 41°22' E 002°11'0 0.0
2015-Apr-25 21:33N 41°22' E 002°11'0 0.0
2015-Apr-25 20:09N 41°22' E 002°11'0 0.0
2015-Apr-25 19:33N 41°22' E 002°11'0 0.0
2015-Apr-25 18:15N 41°22' E 002°11'0 0.0
2015-Apr-25 17:33N 41°22' E 002°11'0 0.0
2015-Apr-25 16:30N 41°22' E 002°11'8 8.6
2015-Apr-25 15:31N 41°21' E 002°22'2020.6
2015-Apr-25 14:33N 41°30' E 002°46'2619.1
2015-Apr-25 13:10N 41°41' E 003°17'1320.0
2015-Apr-25 12:33N 41°47' E 003°32'2020.1
2015-Apr-25 11:32N 41°56' E 003°57'2020.2
2015-Apr-25 10:33N 42°05' E 004°21'2120.0
2015-Apr-25 09:29N 42°14' E 004°47'2018.7
2015-Apr-25 08:25N 42°23' E 005°10'1718.5
2015-Apr-25 07:29N 42°32' E 005°31'13619.6
2015-Apr-25 00:33N 43°48' E 008°06'2019.8
2015-Apr-24 23:34N 44°03' E 008°23'1716.6
2015-Apr-24 22:33N 44°19' E 008°30'0 0.4
2015-Apr-24 21:33N 44°19' E 008°30'  

Dump ship's entire track history